Time;durP1;ratioP1;P1;durP2;ratioP2;P2;SDS_P1;SDS_P2;PMS_P1;PMS_P2;Temp;Humidity;BMP_temperature;BMP_pressure;BME280_temperature;BME280_humidity;BME280_pressure;Samples;Min_cycle;Max_cycle;Signal;HPM_P1;HPM_P2
2022/10/22 03:02:34;;;;;;;1.48;1.10;;;19.70;52.00;;;;;;4959600;23;45968;-83
2022/10/22 03:05:00;;;;;;;1.83;1.30;;;19.70;52.10;;;;;;4866384;28;44758;-83
2022/10/22 03:07:25;;;;;;;1.33;1.02;;;19.70;52.10;;;;;;4864613;28;45181;-84
2022/10/22 03:09:51;;;;;;;1.35;1.10;;;19.70;52.10;;;;;;4881856;28;45639;-84
2022/10/22 03:12:16;;;;;;;2.00;1.20;;;19.70;52.10;;;;;;4849668;29;47429;-83
2022/10/22 03:14:43;;;;;;;1.70;1.08;;;19.60;52.00;;;;;;4864566;28;45218;-84
2022/10/22 03:17:08;;;;;;;1.17;1.10;;;19.70;52.20;;;;;;4866051;29;45210;-83
2022/10/22 03:19:34;;;;;;;1.02;0.98;;;19.70;52.10;;;;;;4865286;29;45301;-84
2022/10/22 03:22:12;;;;;;;1.67;1.17;;;19.70;52.10;;;;;;4836135;29;47452;-85
2022/10/22 03:24:41;;;;;;;1.40;1.23;;;19.70;52.10;;;;;;4879557;29;45315;-84
2022/10/22 03:27:07;;;;;;;1.10;1.00;;;19.60;52.00;;;;;;4863123;29;45787;-84
2022/10/22 03:29:37;;;;;;;1.30;1.00;;;19.70;52.10;;;;;;4880627;28;45408;-83
2022/10/22 03:32:02;;;;;;;1.45;0.98;;;19.70;52.00;;;;;;4864985;29;47019;-83
2022/10/22 03:34:28;;;;;;;1.35;1.15;;;19.70;52.10;;;;;;4849189;28;44931;-84
2022/10/22 03:36:53;;;;;;;1.00;0.90;;;19.70;52.10;;;;;;4845623;29;45368;-83
2022/10/22 03:39:22;;;;;;;1.02;1.00;;;19.70;52.10;;;;;;4848111;29;44799;-82
2022/10/22 03:41:48;;;;;;;1.13;1.02;;;19.70;52.10;;;;;;4848510;28;47658;-84
2022/10/22 03:44:14;;;;;;;1.25;1.00;;;19.70;52.10;;;;;;4846399;29;45337;-85
2022/10/22 03:46:40;;;;;;;1.42;1.05;;;19.70;52.10;;;;;;4864832;29;45297;-80
2022/10/22 03:49:05;;;;;;;1.13;0.98;;;19.70;52.10;;;;;;4862051;29;44787;-83
2022/10/22 03:51:34;;;;;;;1.05;1.00;;;19.70;52.10;;;;;;4868062;29;47199;-83
2022/10/22 03:54:00;;;;;;;1.90;1.30;;;19.70;52.10;;;;;;4842948;28;44966;-84
2022/10/22 03:56:27;;;;;;;1.10;1.00;;;19.70;52.10;;;;;;4865298;28;45310;-83
2022/10/22 03:58:55;;;;;;;0.90;0.90;;;19.70;52.10;;;;;;4878520;28;45241;-83
2022/10/22 04:01:27;;;;;;;1.42;1.08;;;19.60;52.00;;;;;;4863903;29;46551;-82
2022/10/22 04:03:53;;;;;;;1.10;1.00;;;19.70;52.10;;;;;;4881633;29;45151;-84
2022/10/22 04:06:25;;;;;;;2.03;0.98;;;19.60;52.10;;;;;;4866962;28;45527;-84
2022/10/22 04:08:50;;;;;;;1.23;0.95;;;19.70;52.10;;;;;;4880434;29;45185;-84
2022/10/22 06:40:10;;;;;;;0.88;0.80;;;19.50;52.20;;;;;;4884665;28;45585;-62
2022/10/22 06:42:35;;;;;;;1.15;0.98;;;19.50;52.30;;;;;;4888649;28;44978;-60
2022/10/22 06:45:01;;;;;;;0.90;0.80;;;19.50;52.30;;;;;;4891803;28;46209;-61
2022/10/22 06:47:26;;;;;;;0.85;0.80;;;19.50;52.30;;;;;;4887733;28;46171;-61
2022/10/22 06:49:52;;;;;;;0.77;0.77;;;19.60;52.30;;;;;;4889135;28;46250;-62
2022/10/22 06:52:17;;;;;;;1.13;0.85;;;19.50;52.30;;;;;;4891511;28;45354;-62
2022/10/22 06:54:43;;;;;;;1.00;0.90;;;19.50;52.30;;;;;;4890348;28;45501;-61
2022/10/22 06:57:08;;;;;;;1.40;0.80;;;19.50;52.20;;;;;;4888825;28;45734;-61
2022/10/22 06:59:34;;;;;;;1.02;0.93;;;19.60;52.30;;;;;;4890258;28;45585;-61
2022/10/22 07:02:00;;;;;;;0.68;0.68;;;19.60;52.30;;;;;;4882237;28;45686;-61
2022/10/22 07:04:25;;;;;;;1.00;0.90;;;19.50;52.30;;;;;;4886997;28;46367;-61
2022/10/22 07:06:53;;;;;;;1.15;0.90;;;19.50;52.20;;;;;;4890267;28;47034;-59
2022/10/22 07:09:19;;;;;;;1.20;0.90;;;19.50;52.20;;;;;;4888642;28;45256;-60
2022/10/22 07:11:45;;;;;;;1.23;0.82;;;19.50;52.20;;;;;;4890049;28;45106;-61
2022/10/22 07:14:10;;;;;;;0.70;0.70;;;19.50;52.20;;;;;;4889549;28;45423;-61
2022/10/22 07:16:36;;;;;;;0.98;0.88;;;19.60;52.20;;;;;;4890180;28;45862;-62
2022/10/22 07:19:02;;;;;;;2.05;0.70;;;19.60;52.20;;;;;;4889389;28;45231;-59
2022/10/22 07:21:28;;;;;;;0.68;0.68;;;19.60;52.20;;;;;;4890594;28;45456;-60
2022/10/22 07:23:53;;;;;;;1.20;1.10;;;19.60;52.20;;;;;;4888212;28;44775;-61
2022/10/22 07:26:19;;;;;;;0.93;0.65;;;19.60;52.20;;;;;;4889198;28;46129;-62
2022/10/22 07:28:45;;;;;;;1.10;0.93;;;19.60;52.20;;;;;;4888449;28;45657;-63
2022/10/22 07:31:11;;;;;;;0.75;0.75;;;19.60;52.30;;;;;;4889981;28;45613;-62
2022/10/22 07:33:37;;;;;;;1.63;1.10;;;19.50;52.20;;;;;;4890741;28;45894;-62
2022/10/22 07:36:04;;;;;;;0.80;0.80;;;19.50;52.20;;;;;;4891411;28;45944;-62
2022/10/22 07:38:30;;;;;;;0.57;0.57;;;19.50;52.10;;;;;;4889624;28;45340;-62
2022/10/22 07:40:56;;;;;;;0.73;0.73;;;19.50;52.20;;;;;;4891024;28;45894;-61
2022/10/22 07:43:21;;;;;;;0.95;0.82;;;19.60;52.20;;;;;;4887075;28;45275;-61
2022/10/22 07:45:47;;;;;;;0.70;0.70;;;19.60;52.30;;;;;;4889589;28;45930;-62
2022/10/22 07:48:13;;;;;;;1.85;0.80;;;19.60;52.30;;;;;;4889856;28;44927;-64
2022/10/22 07:50:38;;;;;;;1.05;0.93;;;19.50;52.30;;;;;;4888341;28;45577;-62
2022/10/22 07:53:04;;;;;;;0.80;0.75;;;19.60;52.30;;;;;;4888449;28;45278;-62
2022/10/22 07:55:30;;;;;;;1.17;0.90;;;19.50;52.30;;;;;;4891484;28;46129;-61
2022/10/22 07:57:55;;;;;;;0.93;0.82;;;19.50;52.30;;;;;;4892294;28;45506;-62
2022/10/22 08:00:21;;;;;;;0.95;0.80;;;19.50;52.30;;;;;;4893983;28;45910;-64
2022/10/22 08:02:46;;;;;;;1.00;0.90;;;19.50;52.20;;;;;;4891959;28;45497;-62
2022/10/22 08:05:12;;;;;;;0.88;0.82;;;19.60;52.20;;;;;;4892072;28;45922;-61
2022/10/22 08:07:38;;;;;;;1.17;0.90;;;19.60;52.20;;;;;;4892799;28;45588;-62
2022/10/22 08:10:04;;;;;;;0.60;0.60;;;19.60;52.20;;;;;;4893330;28;45346;-62
2022/10/22 08:12:30;;;;;;;0.95;0.70;;;19.60;52.20;;;;;;4891842;28;45423;-62
2022/10/22 08:14:56;;;;;;;0.90;0.90;;;19.50;52.10;;;;;;4893654;28;46050;-62
2022/10/22 08:17:21;;;;;;;0.80;0.80;;;19.60;52.20;;;;;;4892726;28;44940;-62
2022/10/22 08:19:47;;;;;;;0.60;0.60;;;19.60;52.10;;;;;;4894927;28;45538;-62
2022/10/22 08:22:12;;;;;;;0.80;0.80;;;19.60;52.10;;;;;;4894571;29;45553;-62
2022/10/22 08:24:38;;;;;;;0.88;0.60;;;19.60;52.10;;;;;;4891298;28;45463;-62
2022/10/22 08:27:03;;;;;;;0.80;0.80;;;19.60;52.10;;;;;;4893114;29;45422;-62
2022/10/22 08:29:29;;;;;;;0.90;0.80;;;19.60;52.00;;;;;;4893940;28;45455;-61
2022/10/22 08:31:54;;;;;;;0.70;0.70;;;19.70;52.00;;;;;;4891954;28;45181;-62
2022/10/22 08:34:20;;;;;;;1.08;0.77;;;19.70;51.90;;;;;;4891213;28;46276;-62
2022/10/22 08:36:46;;;;;;;0.73;0.73;;;19.70;51.90;;;;;;4893124;28;44909;-61
2022/10/22 08:39:11;;;;;;;0.60;0.60;;;19.70;51.90;;;;;;4892206;28;45640;-61
2022/10/22 08:42:11;;;;;;;0.68;0.68;;;19.70;51.90;;;;;;4891717;28;45484;-63
2022/10/22 08:45:00;;;;;;;1.05;0.90;;;19.70;51.80;;;;;;4891851;28;45899;-61
2022/10/22 08:48:04;;;;;;;0.80;0.80;;;19.70;51.90;;;;;;4891053;28;45741;-61
2022/10/22 08:50:39;;;;;;;0.68;0.68;;;19.80;51.80;;;;;;4892886;28;44759;-61
2022/10/22 08:53:14;;;;;;;0.88;0.65;;;19.80;51.90;;;;;;4887710;28;44936;-64
2022/10/22 08:55:39;;;;;;;1.60;0.82;;;19.70;51.80;;;;;;4889864;28;46987;-58
2022/10/22 08:58:16;;;;;;;0.70;0.70;;;19.80;51.90;;;;;;4890181;28;46130;-61
2022/10/22 09:00:53;;;;;;;0.85;0.80;;;19.80;51.80;;;;;;4891962;28;46208;-61
2022/10/22 09:03:50;;;;;;;0.70;0.70;;;19.80;51.70;;;;;;4890926;29;45683;-64
2022/10/22 09:06:21;;;;;;;0.82;0.70;;;19.80;51.60;;;;;;4861805;28;47192;-63
2022/10/22 09:08:47;;;;;;;2.67;0.80;;;19.80;51.60;;;;;;4888467;28;45347;-64
2022/10/22 09:11:12;;;;;;;0.88;0.75;;;19.90;51.60;;;;;;4890494;28;46446;-63
2022/10/22 09:13:39;;;;;;;1.00;0.80;;;19.90;51.60;;;;;;4893432;28;45967;-64
2022/10/22 09:16:24;;;;;;;0.75;0.75;;;19.90;51.60;;;;;;4887638;28;46210;-63
2022/10/22 09:19:10;;;;;;;0.80;0.70;;;19.90;51.50;;;;;;4885389;28;45497;-63
2022/10/22 09:21:57;;;;;;;0.80;0.70;;;19.90;52.10;;;;;;4885269;28;45633;-64
2022/10/22 09:24:40;;;;;;;0.68;0.68;;;19.90;51.50;;;;;;4887676;28;45631;-63
2022/10/22 09:27:20;;;;;;;1.20;0.88;;;19.90;51.50;;;;;;4898439;28;46239;-63
2022/10/22 09:29:46;;;;;;;0.90;0.70;;;19.90;51.50;;;;;;4887449;28;45641;-64
2022/10/22 09:32:14;;;;;;;0.93;0.60;;;19.90;51.60;;;;;;4888473;28;45383;-64
2022/10/22 09:34:40;;;;;;;0.65;0.65;;;19.90;51.60;;;;;;4888176;28;46199;-63
2022/10/22 09:37:07;;;;;;;0.77;0.77;;;19.90;51.60;;;;;;4881937;28;46238;-64
2022/10/22 09:39:39;;;;;;;0.65;0.65;;;19.90;51.60;;;;;;4875878;28;45304;-63
2022/10/22 09:42:15;;;;;;;0.70;0.70;;;19.90;51.50;;;;;;4883730;28;45936;-63
2022/10/22 09:44:41;;;;;;;0.77;0.77;;;19.90;51.60;;;;;;4883729;28;45787;-63
2022/10/22 09:47:25;;;;;;;1.05;0.90;;;19.90;51.60;;;;;;4878901;28;46660;-62
2022/10/22 09:50:06;;;;;;;0.75;0.70;;;19.90;51.50;;;;;;4866963;28;46489;-62
2022/10/22 09:52:31;;;;;;;1.00;0.90;;;19.90;51.50;;;;;;4882142;28;45808;-63
2022/10/22 09:54:57;;;;;;;0.60;0.60;;;19.90;51.50;;;;;;4892860;28;45799;-64
2022/10/22 09:57:23;;;;;;;0.80;0.65;;;20.00;51.60;;;;;;4874817;28;46150;-64
2022/10/22 09:59:50;;;;;;;0.63;0.63;;;20.00;51.60;;;;;;4868106;29;45579;-64
2022/10/22 10:02:19;;;;;;;0.63;0.63;;;20.00;51.50;;;;;;4880512;28;45345;-64
2022/10/22 10:04:46;;;;;;;0.70;0.70;;;20.00;51.60;;;;;;4882278;28;45514;-63
2022/10/22 10:07:17;;;;;;;0.95;0.93;;;20.00;51.50;;;;;;4883192;28;46263;-65
2022/10/22 10:09:43;;;;;;;1.05;0.88;;;20.00;51.50;;;;;;4889629;28;45856;-63
2022/10/22 10:12:18;;;;;;;1.25;0.70;;;20.00;51.60;;;;;;4888717;28;45705;-63
2022/10/22 10:14:59;;;;;;;0.73;0.60;;;20.00;51.60;;;;;;4888854;28;45387;-64
2022/10/22 10:17:34;;;;;;;0.95;0.80;;;20.00;51.50;;;;;;4888533;28;46026;-63
2022/10/22 10:20:22;;;;;;;0.73;0.60;;;20.00;51.50;;;;;;4890782;28;45561;-63
2022/10/22 10:22:50;;;;;;;0.60;0.60;;;20.00;51.60;;;;;;4890443;28;45701;-63
2022/10/22 10:25:45;;;;;;;0.63;0.63;;;20.00;51.50;;;;;;4888838;28;46346;-63
2022/10/22 10:28:33;;;;;;;1.05;0.75;;;20.00;51.40;;;;;;4889460;28;45991;-64
2022/10/22 10:31:15;;;;;;;1.42;0.50;;;20.00;51.40;;;;;;4888088;28;45076;-61
2022/10/22 10:34:09;;;;;;;0.63;0.63;;;20.00;51.50;;;;;;4871023;28;44802;-62
2022/10/22 10:37:05;;;;;;;0.55;0.55;;;20.00;51.50;;;;;;4890083;28;45679;-63
2022/10/22 10:39:40;;;;;;;0.60;0.60;;;20.00;51.50;;;;;;4863040;28;46117;-63
2022/10/22 10:42:32;;;;;;;0.70;0.60;;;20.00;51.60;;;;;;4889382;28;45372;-62
2022/10/22 10:45:19;;;;;;;0.68;0.68;;;20.10;51.50;;;;;;4887976;28;45544;-63
2022/10/22 10:47:59;;;;;;;2.00;0.90;;;20.10;51.50;;;;;;4889828;28;45197;-63
2022/10/22 10:50:49;;;;;;;0.60;0.57;;;20.10;51.50;;;;;;4888870;28;46487;-62
2022/10/22 10:53:27;;;;;;;0.68;0.68;;;20.10;51.40;;;;;;4889080;28;45296;-63
2022/10/22 10:56:13;;;;;;;0.68;0.68;;;20.10;51.40;;;;;;4886414;28;46182;-62
2022/10/22 10:58:41;;;;;;;0.57;0.57;;;20.10;51.40;;;;;;4891361;28;45514;-62
2022/10/22 11:01:18;;;;;;;0.70;0.70;;;20.10;51.50;;;;;;4889052;28;45704;-63
2022/10/22 11:04:06;;;;;;;0.70;0.70;;;20.10;51.50;;;;;;4890942;28;45404;-63
2022/10/22 11:06:32;;;;;;;0.70;0.70;;;20.10;51.50;;;;;;4889020;28;44914;-62
2022/10/22 11:09:02;;;;;;;0.60;0.60;;;20.10;51.50;;;;;;4872080;29;46236;-63
2022/10/22 11:11:33;;;;;;;0.60;0.60;;;20.10;51.50;;;;;;4890474;28;47122;-62
2022/10/22 11:14:12;;;;;;;0.77;0.77;;;20.10;51.40;;;;;;4904866;28;44994;-63
2022/10/22 11:17:00;;;;;;;0.50;0.50;;;20.10;51.30;;;;;;4891444;28;45265;-62
2022/10/22 11:19:31;;;;;;;1.00;0.68;;;20.10;51.30;;;;;;4891613;28;45961;-62
2022/10/22 11:22:08;;;;;;;0.63;0.60;;;20.10;51.40;;;;;;4902517;28;46245;-63
2022/10/22 11:24:52;;;;;;;0.70;0.70;;;20.20;51.40;;;;;;4891128;28;44698;-63
2022/10/22 11:27:37;;;;;;;0.80;0.75;;;20.20;51.50;;;;;;4890037;28;45702;-63
2022/10/22 11:30:15;;;;;;;0.60;0.60;;;20.20;51.40;;;;;;4894178;28;45399;-63
2022/10/22 11:32:41;;;;;;;0.82;0.70;;;20.20;51.50;;;;;;4894565;28;46120;-63
2022/10/22 11:35:11;;;;;;;0.80;0.75;;;20.20;51.40;;;;;;4892963;28;44739;-63
2022/10/22 11:37:37;;;;;;;0.68;0.60;;;20.20;51.40;;;;;;4888254;28;45714;-63
2022/10/22 11:40:16;;;;;;;0.90;0.77;;;20.20;51.30;;;;;;4905649;28;44830;-63
2022/10/22 11:43:06;;;;;;;1.50;0.70;;;20.20;51.30;;;;;;4891157;29;46227;-62
2022/10/22 11:45:37;;;;;;;0.70;0.70;;;20.30;51.30;;;;;;4882849;28;45299;-61
2022/10/22 11:48:10;;;;;;;0.70;0.70;;;20.30;51.30;;;;;;4890607;28;45376;-62
2022/10/22 11:50:51;;;;;;;1.00;0.75;;;20.30;51.30;;;;;;4890000;28;45923;-63
2022/10/22 11:53:17;;;;;;;0.50;0.50;;;20.30;51.20;;;;;;4888490;28;46200;-63
2022/10/22 11:55:47;;;;;;;0.70;0.60;;;20.30;51.20;;;;;;4889859;28;45611;-63
2022/10/22 11:58:42;;;;;;;0.70;0.70;;;20.30;51.20;;;;;;4891037;28;45432;-62
2022/10/22 12:01:08;;;;;;;0.47;0.47;;;20.30;51.20;;;;;;4889818;28;45703;-62
2022/10/22 12:03:33;;;;;;;0.80;0.80;;;20.30;51.20;;;;;;4889161;28;46070;-63
2022/10/22 12:06:11;;;;;;;2.20;0.65;;;20.30;51.20;;;;;;4890804;28;45641;-63
2022/10/22 12:08:52;;;;;;;0.57;0.57;;;20.30;51.20;;;;;;4893220;28;45297;-63
2022/10/22 12:11:39;;;;;;;0.60;0.60;;;20.30;51.10;;;;;;4893110;28;45798;-63
2022/10/22 12:14:36;;;;;;;0.85;0.73;;;20.40;51.20;;;;;;4892460;28;46194;-63
2022/10/22 12:17:02;;;;;;;0.65;0.63;;;20.40;51.20;;;;;;4891348;28;45323;-63
2022/10/22 12:19:34;;;;;;;0.50;0.50;;;20.40;51.20;;;;;;4889307;28;45620;-63
2022/10/22 12:22:02;;;;;;;0.75;0.65;;;20.40;51.20;;;;;;4892921;28;45320;-63
2022/10/22 12:24:33;;;;;;;0.63;0.60;;;20.40;51.20;;;;;;4892566;28;47119;-62
2022/10/22 12:26:58;;;;;;;0.43;0.43;;;20.40;51.20;;;;;;4891760;28;45694;-63
2022/10/22 12:29:25;;;;;;;0.60;0.60;;;20.40;51.30;;;;;;4892554;28;45347;-62
2022/10/22 12:31:51;;;;;;;0.70;0.70;;;20.40;51.30;;;;;;4889942;28;45364;-63
2022/10/22 12:34:20;;;;;;;0.70;0.70;;;20.40;51.30;;;;;;4891209;28;46493;-62
2022/10/22 12:36:46;;;;;;;0.50;0.50;;;20.40;51.20;;;;;;4884733;28;45144;-62
2022/10/22 12:39:14;;;;;;;0.57;0.57;;;20.40;51.20;;;;;;4891062;28;45554;-63
2022/10/22 12:41:40;;;;;;;1.08;0.85;;;20.40;51.20;;;;;;4892063;28;45472;-63
2022/10/22 12:44:05;;;;;;;0.50;0.50;;;20.40;51.20;;;;;;4893265;28;45978;-63
2022/10/22 12:46:32;;;;;;;0.60;0.45;;;20.40;51.20;;;;;;4893811;28;45756;-61
2022/10/22 12:49:03;;;;;;;0.70;0.55;;;20.40;51.30;;;;;;4895151;28;45279;-63
2022/10/22 12:51:29;;;;;;;0.50;0.50;;;20.40;51.20;;;;;;4893653;28;45726;-63
2022/10/22 12:53:56;;;;;;;0.73;0.70;;;20.40;51.30;;;;;;4894459;28;46148;-61
2022/10/22 12:56:26;;;;;;;0.93;0.82;;;20.40;51.30;;;;;;4890643;28;44728;-62
2022/10/22 12:59:00;;;;;;;0.60;0.60;;;20.40;51.30;;;;;;4895553;28;46373;-63
2022/10/22 13:01:27;;;;;;;0.75;0.50;;;20.40;51.40;;;;;;4892171;28;45504;-62
2022/10/22 13:04:03;;;;;;;0.50;0.50;;;20.40;51.50;;;;;;4891040;28;46445;-62
2022/10/22 13:06:29;;;;;;;0.55;0.55;;;20.40;51.50;;;;;;4894606;28;45445;-62
2022/10/22 13:08:58;;;;;;;0.80;0.50;;;20.30;51.50;;;;;;4891491;28;45201;-62
2022/10/22 13:11:30;;;;;;;0.65;0.65;;;20.40;51.60;;;;;;4889710;28;44793;-62
2022/10/22 13:14:03;;;;;;;0.70;0.60;;;20.40;51.50;;;;;;4891833;28;47290;-62
2022/10/22 13:16:29;;;;;;;0.50;0.43;;;20.40;51.50;;;;;;4887487;28;45714;-63
2022/10/22 13:18:55;;;;;;;0.60;0.60;;;20.40;51.50;;;;;;4894109;28;45314;-64
2022/10/22 13:21:40;;;;;;;0.50;0.50;;;20.40;51.50;;;;;;4895650;28;45850;-61
2022/10/22 13:24:20;;;;;;;0.47;0.47;;;20.40;51.40;;;;;;4891181;28;45982;-63
2022/10/22 13:26:51;;;;;;;0.50;0.50;;;20.50;51.40;;;;;;4893288;28;44739;-62
2022/10/22 13:29:18;;;;;;;0.77;0.68;;;20.50;51.40;;;;;;4895531;28;45782;-61
2022/10/22 13:31:47;;;;;;;0.75;0.60;;;20.50;51.40;;;;;;4891124;28;44932;-63
2022/10/22 13:34:16;;;;;;;0.85;0.60;;;20.50;51.40;;;;;;4874380;28;45885;-63
2022/10/22 13:36:41;;;;;;;0.68;0.68;;;20.50;51.40;;;;;;4875765;29;45213;-61
2022/10/22 13:39:12;;;;;;;0.50;0.50;;;20.50;51.40;;;;;;4893324;28;45290;-63
2022/10/22 13:41:38;;;;;;;0.82;0.63;;;20.50;51.40;;;;;;4889805;28;44779;-63
2022/10/22 13:44:03;;;;;;;0.88;0.70;;;20.50;51.40;;;;;;4892487;28;46215;-63
2022/10/22 13:46:30;;;;;;;0.52;0.52;;;20.50;51.40;;;;;;4893342;28;45656;-62
2022/10/22 13:48:55;;;;;;;1.10;0.70;;;20.50;51.40;;;;;;4892216;28;45485;-63
2022/10/22 13:51:23;;;;;;;0.60;0.60;;;20.50;51.40;;;;;;4892449;28;45616;-63
2022/10/22 13:53:50;;;;;;;0.50;0.50;;;20.50;52.00;;;;;;4893221;28;46045;-62
2022/10/22 13:56:16;;;;;;;0.70;0.70;;;20.50;51.30;;;;;;4894057;29;44678;-63
2022/10/22 13:58:43;;;;;;;0.60;0.60;;;20.50;51.30;;;;;;4894262;28;45314;-62
2022/10/22 14:01:35;;;;;;;0.50;0.50;;;20.50;51.30;;;;;;4890878;28;46039;-62
2022/10/22 14:04:00;;;;;;;0.73;0.63;;;20.50;51.30;;;;;;4890702;28;45494;-62
2022/10/22 14:06:27;;;;;;;0.57;0.57;;;20.50;51.40;;;;;;4893328;28;46287;-63
2022/10/22 14:08:58;;;;;;;0.57;0.57;;;20.50;51.40;;;;;;4886667;28;45301;-62
2022/10/22 14:11:26;;;;;;;0.70;0.65;;;20.50;51.40;;;;;;4890860;28;45499;-63
2022/10/22 14:13:51;;;;;;;0.55;0.55;;;20.50;51.40;;;;;;4887297;28;46033;-62
2022/10/22 14:16:19;;;;;;;0.55;0.50;;;20.50;51.40;;;;;;4889216;28;45448;-63
2022/10/22 14:18:45;;;;;;;0.95;0.60;;;20.50;51.40;;;;;;4885014;28;45282;-62
2022/10/22 14:21:10;;;;;;;0.40;0.40;;;20.50;51.40;;;;;;4887246;28;45310;-62
2022/10/22 14:23:36;;;;;;;0.93;0.75;;;20.50;52.00;;;;;;4889650;28;45765;-63
2022/10/22 14:26:02;;;;;;;0.70;0.60;;;20.50;51.40;;;;;;4892051;28;44767;-62
2022/10/22 14:28:27;;;;;;;1.00;0.60;;;20.50;51.40;;;;;;4892348;28;45814;-63
2022/10/22 14:30:53;;;;;;;0.60;0.60;;;20.50;51.40;;;;;;4889012;28;44826;-61
2022/10/22 14:33:31;;;;;;;0.60;0.60;;;20.50;51.40;;;;;;4890332;28;46239;-63
2022/10/22 14:36:00;;;;;;;0.60;0.60;;;20.50;51.40;;;;;;4872343;29;45398;-62
2022/10/22 14:38:26;;;;;;;0.70;0.50;;;20.50;51.40;;;;;;4887279;28;45161;-63
2022/10/22 14:40:52;;;;;;;1.27;1.08;;;20.50;51.40;;;;;;4885974;28;45793;-63
2022/10/22 14:43:24;;;;;;;0.57;0.57;;;20.60;51.50;;;;;;4886640;28;46473;-63
2022/10/22 14:45:49;;;;;;;0.95;0.63;;;20.60;51.50;;;;;;4886246;28;46454;-63
2022/10/22 14:48:15;;;;;;;0.52;0.50;;;20.50;51.50;;;;;;4888924;28;45700;-64
2022/10/22 14:50:42;;;;;;;0.50;0.50;;;20.60;51.50;;;;;;4887754;28;47943;-63
2022/10/22 14:53:08;;;;;;;0.63;0.30;;;20.60;51.50;;;;;;4886661;28;45548;-64
2022/10/22 14:55:33;;;;;;;0.57;0.57;;;20.60;51.50;;;;;;4888448;28;45653;-63
2022/10/22 14:57:59;;;;;;;0.52;0.52;;;20.60;51.50;;;;;;4885879;28;45414;-63
2022/10/22 15:00:24;;;;;;;0.60;0.60;;;20.60;51.50;;;;;;4885512;28;45677;-63
2022/10/22 15:02:50;;;;;;;0.90;0.60;;;20.60;51.50;;;;;;4887101;28;46267;-63
2022/10/22 15:05:16;;;;;;;0.57;0.50;;;20.60;51.60;;;;;;4886159;28;45478;-63
2022/10/22 15:07:42;;;;;;;0.60;0.60;;;20.60;51.50;;;;;;4887668;28;45350;-63
2022/10/22 15:10:08;;;;;;;0.60;0.50;;;20.60;51.50;;;;;;4887153;28;45658;-62
2022/10/22 15:12:33;;;;;;;0.57;0.57;;;20.60;51.50;;;;;;4887407;28;45753;-63
2022/10/22 15:14:59;;;;;;;0.57;0.40;;;20.60;51.50;;;;;;4891851;29;45744;-63
2022/10/22 15:17:24;;;;;;;0.45;0.45;;;20.60;51.50;;;;;;4889132;28;45788;-63
2022/10/22 15:19:51;;;;;;;0.40;0.32;;;20.60;51.60;;;;;;4872014;28;44902;-63
2022/10/22 15:22:18;;;;;;;0.40;0.40;;;20.60;51.50;;;;;;4885298;28;45846;-63
2022/10/22 15:24:43;;;;;;;0.50;0.50;;;20.60;51.50;;;;;;4886747;28;45721;-63
2022/10/22 15:27:12;;;;;;;0.60;0.60;;;20.60;51.50;;;;;;4886559;29;45396;-63
2022/10/22 15:29:38;;;;;;;0.60;0.60;;;20.60;51.50;;;;;;4887722;28;45969;-63
2022/10/22 15:32:04;;;;;;;0.60;0.60;;;20.60;51.50;;;;;;4887557;28;45666;-63
2022/10/22 15:34:33;;;;;;;0.50;0.50;;;20.60;51.60;;;;;;4888232;28;45631;-62
2022/10/22 15:37:00;;;;;;;0.40;0.40;;;20.60;51.50;;;;;;4886749;28;45726;-62
2022/10/22 15:39:26;;;;;;;0.80;0.80;;;20.60;51.60;;;;;;4882280;28;44808;-62
2022/10/22 15:41:52;;;;;;;0.60;0.60;;;20.60;51.60;;;;;;4888514;28;45681;-63
2022/10/22 15:44:19;;;;;;;0.50;0.50;;;20.60;51.50;;;;;;4888459;28;45153;-63
2022/10/22 15:46:45;;;;;;;1.20;0.60;;;20.60;51.60;;;;;;4888803;28;45764;-63
2022/10/22 15:49:10;;;;;;;0.90;0.63;;;20.60;51.60;;;;;;4887068;28;44916;-62
2022/10/22 15:51:36;;;;;;;0.40;0.40;;;20.60;51.60;;;;;;4885221;28;46164;-63
2022/10/22 15:54:02;;;;;;;1.17;0.60;;;20.60;51.60;;;;;;4888061;28;45289;-63
2022/10/22 15:56:27;;;;;;;0.43;0.43;;;20.60;51.60;;;;;;4891389;28;45655;-64
2022/10/22 15:58:54;;;;;;;0.98;0.70;;;20.60;51.60;;;;;;4890022;28;45370;-63
2022/10/22 16:01:20;;;;;;;0.93;0.70;;;20.60;51.60;;;;;;4892436;28;45988;-64
2022/10/22 16:03:45;;;;;;;0.60;0.60;;;20.60;51.60;;;;;;4889705;28;45498;-63
2022/10/22 16:06:11;;;;;;;0.50;0.50;;;20.60;51.60;;;;;;4886240;28;45618;-63
2022/10/22 16:08:36;;;;;;;1.00;0.68;;;20.60;51.60;;;;;;4888584;28;45473;-63
2022/10/22 16:11:02;;;;;;;0.55;0.50;;;20.60;51.60;;;;;;4889654;28;46152;-62
2022/10/22 16:13:28;;;;;;;0.50;0.50;;;20.60;51.50;;;;;;4893535;28;45587;-63
2022/10/22 16:15:53;;;;;;;0.47;0.47;;;20.60;51.60;;;;;;4892765;28;45671;-62
2022/10/22 16:18:20;;;;;;;0.40;0.40;;;20.60;51.50;;;;;;4893959;28;45116;-62
2022/10/22 16:20:45;;;;;;;0.57;0.57;;;20.60;51.60;;;;;;4891582;28;45951;-63
2022/10/22 16:23:11;;;;;;;0.77;0.65;;;20.60;51.60;;;;;;4891748;28;45367;-63
2022/10/22 16:25:40;;;;;;;0.30;0.30;;;20.60;51.60;;;;;;4881036;28;45720;-63
2022/10/22 16:28:06;;;;;;;0.68;0.68;;;20.60;51.60;;;;;;4882997;28;44850;-66
2022/10/22 16:30:33;;;;;;;0.63;0.63;;;20.60;51.60;;;;;;4881878;28;45541;-63
2022/10/22 16:32:59;;;;;;;0.43;0.43;;;20.60;51.60;;;;;;4882422;28;45223;-63
2022/10/22 16:35:24;;;;;;;0.93;0.73;;;20.60;51.60;;;;;;4884261;28;45588;-62
2022/10/22 16:37:50;;;;;;;0.50;0.50;;;20.60;51.60;;;;;;4880428;28;46306;-63
2022/10/22 16:40:16;;;;;;;0.88;0.70;;;20.60;51.60;;;;;;4896384;28;45965;-61
2022/10/22 16:42:42;;;;;;;0.50;0.50;;;20.60;51.60;;;;;;4894233;28;45191;-63
2022/10/22 16:45:08;;;;;;;0.40;0.40;;;20.60;51.60;;;;;;4883333;28;45279;-62
2022/10/22 16:47:34;;;;;;;0.40;0.40;;;20.60;51.70;;;;;;4882390;28;46408;-62
2022/10/22 16:50:00;;;;;;;0.65;0.43;;;20.50;51.60;;;;;;4883670;28;45270;-63
2022/10/22 16:52:25;;;;;;;0.55;0.55;;;20.60;51.60;;;;;;4882609;29;45159;-63
2022/10/22 16:54:51;;;;;;;0.70;0.70;;;20.50;51.60;;;;;;4888959;28;45580;-63
2022/10/22 16:57:16;;;;;;;0.68;0.60;;;20.50;51.60;;;;;;4898425;28;45444;-63
2022/10/22 16:59:42;;;;;;;0.57;0.50;;;20.50;52.30;;;;;;4897149;28;45235;-63
2022/10/22 17:02:09;;;;;;;0.40;0.40;;;20.50;51.70;;;;;;4890004;29;45517;-63
2022/10/22 17:04:35;;;;;;;0.50;0.50;;;20.50;51.70;;;;;;4895029;28;45085;-63
2022/10/22 17:07:00;;;;;;;0.60;0.60;;;20.50;51.70;;;;;;4897780;28;45581;-63
2022/10/22 17:09:26;;;;;;;0.43;0.43;;;20.50;51.60;;;;;;4897015;28;46556;-63
2022/10/22 17:11:51;;;;;;;0.60;0.60;;;20.50;51.70;;;;;;4897542;28;45231;-63
2022/10/22 17:14:17;;;;;;;0.60;0.60;;;20.50;51.70;;;;;;4895795;28;45196;-62
2022/10/22 17:16:43;;;;;;;0.50;0.50;;;20.50;51.70;;;;;;4892562;28;45239;-62
2022/10/22 17:19:11;;;;;;;0.52;0.50;;;20.50;51.80;;;;;;4896722;28;46957;-63
2022/10/22 17:21:36;;;;;;;0.93;0.60;;;20.50;51.80;;;;;;4893570;28;45138;-63
2022/10/22 17:24:02;;;;;;;0.60;0.60;;;20.50;51.70;;;;;;4895880;28;45474;-63
2022/10/22 17:26:29;;;;;;;0.70;0.70;;;20.50;51.70;;;;;;4891384;28;45527;-63
2022/10/22 17:28:54;;;;;;;0.70;0.50;;;20.50;51.80;;;;;;4893279;28;46357;-63
2022/10/22 17:31:31;;;;;;;0.75;0.65;;;20.50;51.70;;;;;;4894691;28;45608;-64
2022/10/22 17:33:58;;;;;;;0.73;0.70;;;20.50;51.80;;;;;;4893004;28;45671;-64
2022/10/22 17:36:24;;;;;;;0.68;0.50;;;20.50;51.80;;;;;;4892729;28;45298;-63
2022/10/22 17:38:52;;;;;;;0.90;0.50;;;20.50;52.40;;;;;;4892960;28;45900;-62
2022/10/22 17:41:19;;;;;;;0.55;0.50;;;20.50;51.80;;;;;;4890676;28;45327;-62
2022/10/22 17:43:45;;;;;;;0.52;0.40;;;20.50;51.80;;;;;;4889940;28;45413;-62
2022/10/22 17:46:17;;;;;;;0.50;0.50;;;20.50;51.80;;;;;;4896847;28;45589;-63
2022/10/22 17:48:43;;;;;;;0.60;0.60;;;20.50;51.80;;;;;;4893169;28;46268;-62
2022/10/22 17:51:09;;;;;;;0.63;0.60;;;20.50;51.80;;;;;;4890598;28;45568;-63
2022/10/22 17:53:37;;;;;;;0.70;0.60;;;20.50;51.80;;;;;;4896161;28;45230;-62
2022/10/22 17:56:05;;;;;;;0.68;0.40;;;20.50;51.80;;;;;;4893021;28;45238;-62
2022/10/22 17:58:31;;;;;;;0.60;0.60;;;20.50;51.80;;;;;;4898144;28;45245;-63
2022/10/22 18:00:57;;;;;;;0.43;0.40;;;20.50;51.80;;;;;;4892719;28;45535;-63
2022/10/22 18:03:22;;;;;;;0.80;0.60;;;20.50;51.80;;;;;;4895893;28;46797;-61
2022/10/22 18:05:48;;;;;;;0.68;0.55;;;20.40;51.80;;;;;;4895080;28;45606;-63
2022/10/22 18:08:14;;;;;;;0.70;0.65;;;20.50;51.80;;;;;;4894425;28;45854;-63
2022/10/22 18:10:39;;;;;;;1.15;0.73;;;20.40;51.80;;;;;;4891853;28;45646;-63
2022/10/22 18:13:05;;;;;;;1.85;0.70;;;20.40;51.80;;;;;;4892585;28;45407;-62
2022/10/22 18:15:32;;;;;;;0.50;0.50;;;20.40;52.40;;;;;;4892423;28;45410;-64
2022/10/22 18:17:58;;;;;;;0.60;0.60;;;20.40;51.80;;;;;;4892761;28;46909;-63
2022/10/22 18:20:23;;;;;;;0.77;0.63;;;20.40;51.80;;;;;;4897066;28;44770;-63
2022/10/22 18:22:49;;;;;;;0.65;0.65;;;20.40;51.80;;;;;;4891970;28;45965;-63
2022/10/22 18:25:15;;;;;;;0.40;0.40;;;20.40;51.80;;;;;;4888874;28;45776;-64
2022/10/22 18:27:40;;;;;;;0.80;0.60;;;20.40;51.80;;;;;;4888008;28;46923;-62
2022/10/22 18:30:06;;;;;;;0.90;0.65;;;20.40;51.80;;;;;;4894940;28;45310;-64